Time;durP1;ratioP1;P1;durP2;ratioP2;P2;SDS_P1;SDS_P2;PMS_P1;PMS_P2;Temp;Humidity;BMP_temperature;BMP_pressure;BME280_temperature;BME280_humidity;BME280_pressure;Samples;Min_cycle;Max_cycle;Signal;HPM_P1;HPM_P2
2021/03/31 00:02:05;;;;;;;43.70;33.67;;;12.30;82.00;;;;;;5025642;28;20519;-60
2021/03/31 00:04:33;;;;;;;37.83;30.77;;;12.30;82.10;;;;;;5021596;28;20629;-60
2021/03/31 00:07:01;;;;;;;44.07;34.17;;;12.30;81.40;;;;;;5031677;28;20241;-59
2021/03/31 00:09:27;;;;;;;49.77;39.90;;;12.20;80.90;;;;;;5023372;28;20208;-60
2021/03/31 00:11:54;;;;;;;53.47;40.40;;;12.20;81.30;;;;;;5021874;28;20321;-60
2021/03/31 00:14:22;;;;;;;51.83;43.73;;;12.10;82.20;;;;;;5014385;28;20215;-61
2021/03/31 00:16:49;;;;;;;51.17;37.50;;;12.10;83.00;;;;;;5032112;28;20274;-60
2021/03/31 00:19:16;;;;;;;43.23;35.87;;;12.00;83.30;;;;;;5031313;28;20215;-60
2021/03/31 00:21:43;;;;;;;43.03;32.43;;;12.00;83.30;;;;;;5032228;28;20210;-60
2021/03/31 00:24:10;;;;;;;35.87;28.77;;;12.00;82.80;;;;;;5027565;28;20318;-60
2021/03/31 00:26:37;;;;;;;41.47;33.37;;;12.00;82.00;;;;;;5029118;28;20294;-60
2021/03/31 00:29:04;;;;;;;42.53;34.10;;;12.00;81.70;;;;;;5032200;28;20203;-60
2021/03/31 00:31:31;;;;;;;46.23;33.87;;;12.00;81.50;;;;;;5029361;28;20614;-60
2021/03/31 00:33:58;;;;;;;52.40;40.60;;;12.00;81.50;;;;;;5007526;28;20643;-60
2021/03/31 00:36:25;;;;;;;50.20;39.77;;;11.90;81.80;;;;;;5030504;28;20242;-60
2021/03/31 00:38:52;;;;;;;44.40;37.77;;;11.90;82.40;;;;;;5030103;28;20203;-60
2021/03/31 00:41:18;;;;;;;58.73;40.83;;;11.90;82.70;;;;;;5031656;28;20209;-60
2021/03/31 00:43:45;;;;;;;53.13;43.00;;;11.80;82.70;;;;;;5013289;28;20330;-60
2021/03/31 00:46:12;;;;;;;47.53;39.50;;;11.80;83.30;;;;;;5013930;28;20239;-60
2021/03/31 00:48:39;;;;;;;44.43;36.10;;;11.80;83.90;;;;;;5030839;28;20253;-60
2021/03/31 00:51:06;;;;;;;45.27;36.57;;;11.70;83.80;;;;;;5014506;28;20280;-60
2021/03/31 00:53:37;;;;;;;51.03;43.20;;;11.70;83.80;;;;;;5031400;28;20655;-60
2021/03/31 00:56:04;;;;;;;46.90;38.93;;;11.60;84.00;;;;;;5013641;28;20529;-60
2021/03/31 00:58:32;;;;;;;48.97;38.50;;;11.60;84.00;;;;;;5033191;28;20210;-60
2021/03/31 01:00:59;;;;;;;49.43;41.03;;;11.60;84.00;;;;;;5035784;28;20297;-60
2021/03/31 01:03:27;;;;;;;58.23;43.07;;;11.50;84.40;;;;;;5034536;28;20262;-60
2021/03/31 01:05:54;;;;;;;39.60;32.70;;;11.40;85.20;;;;;;5018103;28;20641;-60
2021/03/31 01:08:21;;;;;;;31.90;27.90;;;11.40;85.50;;;;;;5035736;28;20211;-60
2021/03/31 01:10:51;;;;;;;35.97;29.83;;;11.30;84.90;;;;;;5032145;28;20265;-60
2021/03/31 01:13:42;;;;;;;32.47;26.90;;;11.20;84.10;;;;;;5034767;28;20235;-60
2021/03/31 01:16:15;;;;;;;36.40;30.07;;;11.20;83.40;;;;;;5033182;28;20207;-60
2021/03/31 01:18:42;;;;;;;45.67;36.47;;;11.10;82.80;;;;;;5028299;28;20298;-60
2021/03/31 01:21:53;;;;;;;35.63;30.33;;;11.00;83.00;;;;;;5033683;28;20608;-60
2021/03/31 01:24:36;;;;;;;38.23;31.43;;;10.90;83.00;;;;;;5011997;28;20227;-60
2021/03/31 01:27:48;;;;;;;46.27;36.23;;;10.90;83.00;;;;;;5030880;28;20541;-60
2021/03/31 01:30:53;;;;;;;43.33;37.03;;;10.80;83.30;;;;;;5032412;28;20301;-60
2021/03/31 01:33:59;;;;;;;57.73;44.97;;;10.80;83.90;;;;;;5032217;28;20242;-60
2021/03/31 01:36:29;;;;;;;65.27;46.20;;;10.70;84.90;;;;;;5030097;28;20684;-59
2021/03/31 01:39:03;;;;;;;56.67;39.07;;;10.70;85.70;;;;;;5030654;28;20215;-59
2021/03/31 01:41:32;;;;;;;55.73;42.97;;;10.70;86.20;;;;;;5034656;28;20198;-59
2021/03/31 01:44:02;;;;;;;50.13;39.50;;;10.70;86.40;;;;;;5017714;28;20675;-59
2021/03/31 01:46:30;;;;;;;46.30;36.87;;;10.70;86.40;;;;;;5016551;28;20631;-60
2021/03/31 01:49:01;;;;;;;50.63;39.20;;;10.70;86.30;;;;;;5013913;28;20234;-60
2021/03/31 01:51:29;;;;;;;51.77;39.50;;;10.80;86.10;;;;;;5032306;28;20223;-60
2021/03/31 01:53:58;;;;;;;59.43;45.97;;;10.70;85.90;;;;;;5033309;28;20212;-60
2021/03/31 01:56:27;;;;;;;43.57;35.90;;;10.70;86.20;;;;;;5032025;28;20211;-60
2021/03/31 01:58:56;;;;;;;36.47;31.93;;;10.70;86.30;;;;;;5033239;28;20207;-60
2021/03/31 02:01:24;;;;;;;37.47;32.03;;;10.70;85.60;;;;;;5027273;28;20215;-60
2021/03/31 02:03:55;;;;;;;43.83;34.23;;;10.60;84.90;;;;;;5029619;28;20276;-59
2021/03/31 02:06:22;;;;;;;59.57;45.20;;;10.60;84.40;;;;;;5030576;28;20217;-60
2021/03/31 02:08:50;;;;;;;64.03;49.33;;;10.60;84.70;;;;;;5013289;28;20203;-60
2021/03/31 02:11:24;;;;;;;56.87;44.60;;;10.50;85.90;;;;;;5034617;28;20207;-60
2021/03/31 02:13:52;;;;;;;41.93;33.97;;;10.50;86.80;;;;;;5028033;28;20244;-60
2021/03/31 02:16:21;;;;;;;60.47;46.40;;;10.50;87.10;;;;;;5031776;28;20294;-60
2021/03/31 02:18:52;;;;;;;51.40;39.17;;;10.50;87.30;;;;;;5017449;28;20611;-60
2021/03/31 02:21:22;;;;;;;39.43;32.90;;;10.50;87.50;;;;;;5029514;28;20237;-60
2021/03/31 02:23:50;;;;;;;35.23;30.13;;;10.50;87.00;;;;;;5030253;28;20234;-59
2021/03/31 02:26:17;;;;;;;43.27;35.07;;;10.40;86.40;;;;;;5032804;28;20222;-60
2021/03/31 02:28:45;;;;;;;35.60;30.70;;;10.40;86.00;;;;;;5011404;28;20553;-60
2021/03/31 02:31:15;;;;;;;36.63;30.50;;;10.30;85.70;;;;;;5026994;28;20628;-60
2021/03/31 02:33:45;;;;;;;37.07;30.73;;;10.20;84.90;;;;;;5031931;28;20215;-60
2021/03/31 02:36:16;;;;;;;45.50;35.20;;;10.10;84.60;;;;;;5034005;28;20233;-60
2021/03/31 02:38:43;;;;;;;48.73;37.80;;;10.10;84.80;;;;;;5031129;28;20219;-60
2021/03/31 02:41:12;;;;;;;47.80;38.60;;;10.00;85.10;;;;;;5029426;28;20212;-60
2021/03/31 02:43:46;;;;;;;56.03;41.13;;;10.00;85.40;;;;;;5006698;28;20251;-60
2021/03/31 02:46:17;;;;;;;52.43;40.77;;;10.00;85.70;;;;;;5033714;28;20555;-60
2021/03/31 02:48:47;;;;;;;23.80;20.37;;;10.00;86.10;;;;;;5016950;28;20289;-60
2021/03/31 02:51:16;;;;;;;28.20;25.13;;;9.90;85.50;;;;;;5029145;28;20211;-60
2021/03/31 02:53:44;;;;;;;34.33;27.63;;;9.90;84.70;;;;;;5028061;28;20208;-60
2021/03/31 02:56:13;;;;;;;36.90;29.87;;;9.80;84.20;;;;;;5028246;28;20603;-60
2021/03/31 02:58:42;;;;;;;36.23;30.47;;;9.80;83.80;;;;;;5029372;28;20242;-60
2021/03/31 03:01:10;;;;;;;40.53;31.57;;;9.70;83.50;;;;;;5021167;28;20212;-60
2021/03/31 03:03:38;;;;;;;31.50;27.00;;;9.60;83.40;;;;;;5032178;28;20257;-60
2021/03/31 03:06:06;;;;;;;27.33;23.73;;;9.60;83.50;;;;;;5016378;28;20211;-59
2021/03/31 03:08:34;;;;;;;35.67;27.97;;;9.50;83.50;;;;;;5026470;28;20203;-60
2021/03/31 03:11:03;;;;;;;28.03;24.43;;;9.50;83.70;;;;;;5030322;28;20212;-60
2021/03/31 03:13:32;;;;;;;26.53;22.97;;;9.50;83.70;;;;;;5016153;28;20235;-60
2021/03/31 03:16:01;;;;;;;37.40;28.77;;;9.40;83.70;;;;;;5033012;28;20246;-60
2021/03/31 03:18:28;;;;;;;28.13;25.13;;;9.40;83.90;;;;;;5031877;28;20215;-60
2021/03/31 03:20:55;;;;;;;41.60;32.93;;;9.40;83.90;;;;;;5028624;28;20224;-60
2021/03/31 03:23:22;;;;;;;42.07;32.60;;;9.40;83.60;;;;;;5029365;28;20231;-60
2021/03/31 03:25:53;;;;;;;56.33;37.03;;;9.30;83.60;;;;;;5025560;28;20531;-60
2021/03/31 03:28:22;;;;;;;46.97;37.80;;;9.30;84.10;;;;;;5032116;28;20198;-60
2021/03/31 03:30:50;;;;;;;64.63;47.10;;;9.30;84.70;;;;;;5031677;28;20207;-59
2021/03/31 03:33:17;;;;;;;59.60;43.77;;;9.20;85.50;;;;;;5031706;28;20273;-59
2021/03/31 03:35:44;;;;;;;66.73;43.57;;;9.30;86.30;;;;;;5030522;28;20222;-59
2021/03/31 03:38:13;;;;;;;57.00;43.60;;;9.30;86.90;;;;;;5032884;28;20211;-59
2021/03/31 03:40:40;;;;;;;41.27;33.47;;;9.30;87.20;;;;;;5029063;28;20272;-59
2021/03/31 03:43:07;;;;;;;41.43;32.20;;;9.30;87.20;;;;;;5032363;28;20241;-60
2021/03/31 03:45:39;;;;;;;33.47;28.10;;;9.40;86.30;;;;;;5026819;28;20214;-60
2021/03/31 03:48:07;;;;;;;44.60;35.90;;;9.30;85.70;;;;;;5030647;28;20266;-60
2021/03/31 03:50:34;;;;;;;49.50;27.20;;;9.30;86.10;;;;;;5026358;28;20204;-60
2021/03/31 03:53:02;;;;;;;241.20;39.73;;;9.30;86.20;;;;;;5027990;28;20222;-60
2021/03/31 03:55:33;;;;;;;29.70;26.13;;;9.20;86.30;;;;;;5031773;28;20609;-60
2021/03/31 03:58:07;;;;;;;34.90;27.20;;;9.10;86.70;;;;;;5032005;28;20202;-60
2021/03/31 04:00:35;;;;;;;32.87;29.17;;;9.10;86.60;;;;;;5030598;28;20597;-60
2021/03/31 04:03:03;;;;;;;24.87;22.13;;;9.10;86.10;;;;;;5029587;28;20276;-60
2021/03/31 04:05:31;;;;;;;38.23;24.70;;;9.00;85.30;;;;;;5033032;28;20215;-59
2021/03/31 04:07:58;;;;;;;30.03;26.10;;;8.90;84.70;;;;;;5032048;28;20714;-60
2021/03/31 04:10:30;;;;;;;28.47;24.53;;;8.80;84.40;;;;;;5032840;28;20214;-60
2021/03/31 04:12:59;;;;;;;29.83;26.63;;;8.70;84.30;;;;;;5030678;28;20278;-60
2021/03/31 04:15:27;;;;;;;31.37;27.57;;;8.70;84.30;;;;;;5032345;28;20215;-60
2021/03/31 04:17:55;;;;;;;32.03;28.17;;;8.60;84.40;;;;;;5026379;28;20584;-60
2021/03/31 04:20:26;;;;;;;28.73;25.10;;;8.60;84.40;;;;;;5032083;28;20630;-60
2021/03/31 04:22:53;;;;;;;28.20;23.23;;;8.60;84.40;;;;;;5024743;28;20243;-60
2021/03/31 04:25:23;;;;;;;26.93;24.00;;;8.60;84.20;;;;;;5031493;28;20199;-60
2021/03/31 04:27:53;;;;;;;37.97;30.93;;;8.70;84.00;;;;;;5011805;28;20218;-59
2021/03/31 04:30:22;;;;;;;26.40;23.73;;;8.70;84.10;;;;;;5026728;28;20205;-60
2021/03/31 04:32:51;;;;;;;31.20;25.30;;;8.70;84.50;;;;;;5031228;28;20269;-60
2021/03/31 04:35:20;;;;;;;30.83;25.93;;;8.70;84.20;;;;;;5031570;28;20203;-60
2021/03/31 04:37:48;;;;;;;28.00;24.67;;;8.80;84.00;;;;;;5030913;28;20252;-60
2021/03/31 04:40:18;;;;;;;54.63;42.13;;;8.80;83.70;;;;;;5014228;28;20281;-60
2021/03/31 04:42:46;;;;;;;51.00;41.03;;;8.80;83.20;;;;;;5028093;28;20211;-60
2021/03/31 04:45:14;;;;;;;33.23;29.73;;;8.70;83.10;;;;;;5014311;28;20215;-60
2021/03/31 04:47:41;;;;;;;47.87;40.93;;;8.60;83.10;;;;;;5029737;28;20256;-60
2021/03/31 04:50:10;;;;;;;41.33;34.00;;;8.60;83.00;;;;;;5024528;28;20212;-60
2021/03/31 04:52:37;;;;;;;32.80;28.37;;;8.50;83.00;;;;;;5029324;28;20642;-59
2021/03/31 04:55:06;;;;;;;29.27;25.37;;;8.50;83.40;;;;;;5031982;28;20207;-59
2021/03/31 04:57:33;;;;;;;43.07;32.93;;;8.50;83.90;;;;;;5010725;28;20237;-59
2021/03/31 05:00:00;;;;;;;48.57;34.30;;;8.60;84.40;;;;;;5031791;28;20211;-59
2021/03/31 05:02:27;;;;;;;31.70;26.53;;;8.60;85.20;;;;;;5030450;28;20247;-60
2021/03/31 05:04:54;;;;;;;26.03;22.63;;;8.60;85.60;;;;;;5031761;28;20256;-60
2021/03/31 05:07:21;;;;;;;20.03;18.00;;;8.60;85.10;;;;;;5029362;28;20220;-60
2021/03/31 05:09:48;;;;;;;17.73;15.97;;;8.70;84.40;;;;;;5027546;28;20218;-60
2021/03/31 05:12:15;;;;;;;37.80;29.83;;;8.70;84.10;;;;;;5031228;28;20308;-59
2021/03/31 05:14:43;;;;;;;26.27;22.27;;;8.70;84.20;;;;;;5009149;28;20718;-60
2021/03/31 05:17:10;;;;;;;27.73;24.70;;;8.80;84.80;;;;;;5020216;28;20236;-60
2021/03/31 05:19:37;;;;;;;26.40;23.60;;;8.90;84.80;;;;;;5027031;28;20310;-60
2021/03/31 05:22:04;;;;;;;23.47;20.73;;;9.10;84.40;;;;;;5017566;28;20322;-60
2021/03/31 05:24:32;;;;;;;24.03;21.43;;;9.30;84.00;;;;;;5022163;28;20230;-59
2021/03/31 05:26:59;;;;;;;25.10;22.17;;;9.50;83.50;;;;;;5009076;28;20213;-59
2021/03/31 05:29:25;;;;;;;31.77;25.27;;;9.70;82.90;;;;;;5030299;28;20210;-59
2021/03/31 05:31:52;;;;;;;28.27;24.30;;;9.90;82.00;;;;;;5008074;28;20208;-60
2021/03/31 05:34:19;;;;;;;41.83;34.53;;;10.10;81.20;;;;;;5014345;28;20251;-60
2021/03/31 05:36:46;;;;;;;26.57;23.37;;;10.20;80.30;;;;;;5028352;28;20337;-60
2021/03/31 05:39:13;;;;;;;22.10;19.53;;;10.30;80.10;;;;;;5029986;28;20703;-60
2021/03/31 05:41:41;;;;;;;19.67;17.07;;;10.50;80.40;;;;;;5031301;28;20285;-60
2021/03/31 05:44:09;;;;;;;58.47;21.27;;;10.80;80.20;;;;;;5033821;28;20738;-60
2021/03/31 05:46:38;;;;;;;27.47;23.70;;;10.90;80.10;;;;;;5034020;28;20199;-59
2021/03/31 05:49:05;;;;;;;32.60;25.83;;;11.10;80.00;;;;;;5035168;28;20650;-59
2021/03/31 05:51:33;;;;;;;41.03;33.57;;;11.20;78.70;;;;;;5031908;28;20298;-60
2021/03/31 05:54:00;;;;;;;42.97;35.53;;;11.30;78.10;;;;;;5033216;28;20606;-60
2021/03/31 05:56:31;;;;;;;37.73;31.10;;;11.40;77.90;;;;;;5034366;28;20217;-60
2021/03/31 05:59:02;;;;;;;39.53;28.80;;;11.50;78.00;;;;;;5012985;28;20282;-59
2021/03/31 06:01:29;;;;;;;27.03;24.20;;;11.60;77.90;;;;;;5016733;28;20200;-60
2021/03/31 06:03:57;;;;;;;29.13;23.17;;;11.70;78.20;;;;;;5017355;28;20261;-60
2021/03/31 06:06:25;;;;;;;25.77;22.93;;;11.90;78.60;;;;;;5026879;28;20211;-60
2021/03/31 06:08:52;;;;;;;28.83;22.37;;;12.10;78.70;;;;;;5030573;28;20302;-60
2021/03/31 06:11:21;;;;;;;26.40;22.43;;;12.40;78.70;;;;;;5027614;28;20210;-60
2021/03/31 06:13:53;;;;;;;28.63;23.37;;;12.60;78.50;;;;;;5024868;28;20239;-60
2021/03/31 06:16:31;;;;;;;34.13;24.73;;;13.00;78.10;;;;;;5016395;28;20575;-60
2021/03/31 06:19:18;;;;;;;41.07;26.90;;;13.40;77.30;;;;;;5025948;28;20223;-60
2021/03/31 06:25:09;;;;;;;39.43;27.53;;;14.10;75.70;;;;;;5027137;28;20321;-60
2021/03/31 06:27:35;;;;;;;40.43;29.77;;;14.50;74.60;;;;;;5016659;28;20650;-61
2021/03/31 06:30:06;;;;;;;40.20;28.87;;;14.60;73.50;;;;;;5032188;28;20318;-60
2021/03/31 06:32:38;;;;;;;41.57;28.77;;;14.90;73.00;;;;;;5032945;28;20298;-61
2021/03/31 06:35:07;;;;;;;37.27;28.97;;;15.10;72.00;;;;;;5032122;28;20550;-60
2021/03/31 06:37:37;;;;;;;36.70;28.77;;;15.40;71.10;;;;;;5013752;28;20543;-60
2021/03/31 06:40:06;;;;;;;35.60;28.83;;;15.50;70.40;;;;;;5021797;28;20299;-60
2021/03/31 06:42:44;;;;;;;38.17;27.20;;;15.70;69.70;;;;;;5016159;28;20226;-61
2021/03/31 06:45:18;;;;;;;40.77;27.37;;;15.80;68.70;;;;;;5014946;28;20554;-60
2021/03/31 06:48:00;;;;;;;37.47;26.83;;;15.90;68.30;;;;;;5032648;28;20219;-60
2021/03/31 06:50:29;;;;;;;38.43;28.70;;;15.90;67.90;;;;;;5026376;28;20227;-60
2021/03/31 06:53:03;;;;;;;35.33;27.10;;;16.00;67.60;;;;;;5013363;28;20207;-61
2021/03/31 06:55:30;;;;;;;38.43;30.20;;;16.00;67.40;;;;;;5030573;28;20307;-61
2021/03/31 06:58:03;;;;;;;41.47;31.07;;;16.10;67.40;;;;;;5012345;28;20223;-61
2021/03/31 07:00:39;;;;;;;38.87;30.33;;;16.20;67.00;;;;;;5026568;28;20207;-60
2021/03/31 07:03:07;;;;;;;42.23;33.90;;;16.20;67.30;;;;;;5011173;28;20231;-59
2021/03/31 07:05:37;;;;;;;41.70;33.27;;;16.30;67.70;;;;;;5010674;28;20203;-60
2021/03/31 07:08:05;;;;;;;43.80;32.67;;;16.30;67.20;;;;;;5034483;28;20277;-58
2021/03/31 07:10:48;;;;;;;43.17;31.90;;;16.40;67.10;;;;;;5033661;28;20542;-58
2021/03/31 07:13:30;;;;;;;43.63;33.80;;;16.40;67.10;;;;;;5028484;28;20247;-60
2021/03/31 07:15:59;;;;;;;41.70;31.70;;;16.50;67.00;;;;;;5015741;28;20215;-58
2021/03/31 07:18:28;;;;;;;45.17;34.93;;;16.50;66.90;;;;;;5016437;28;20203;-59
2021/03/31 07:20:55;;;;;;;46.53;34.43;;;16.60;66.80;;;;;;5031248;28;20621;-59
2021/03/31 07:23:24;;;;;;;42.67;35.17;;;16.60;66.70;;;;;;5032289;28;20293;-60
2021/03/31 07:25:55;;;;;;;42.23;36.77;;;16.70;66.80;;;;;;5029113;28;20306;-58
2021/03/31 07:28:32;;;;;;;53.30;40.00;;;16.80;66.80;;;;;;5016130;28;20211;-61
2021/03/31 07:31:02;;;;;;;50.90;40.50;;;16.90;66.90;;;;;;5014001;28;20252;-59
2021/03/31 07:33:39;;;;;;;53.00;39.00;;;17.00;66.30;;;;;;5015593;28;20210;-59
2021/03/31 07:36:12;;;;;;;53.60;40.33;;;17.10;66.50;;;;;;5014424;28;20653;-61
2021/03/31 07:38:41;;;;;;;51.97;38.63;;;17.20;66.60;;;;;;5013812;28;20431;-60
2021/03/31 07:41:08;;;;;;;53.47;42.20;;;17.40;66.70;;;;;;5029357;28;20216;-60
2021/03/31 07:43:38;;;;;;;51.63;40.20;;;17.60;65.90;;;;;;5015145;28;20241;-60
2021/03/31 07:46:06;;;;;;;52.57;42.40;;;17.70;65.90;;;;;;5006541;28;20597;-59
2021/03/31 07:48:35;;;;;;;65.03;47.70;;;17.90;65.60;;;;;;5031870;28;20227;-59
2021/03/31 07:51:25;;;;;;;57.63;45.73;;;18.00;64.70;;;;;;5033104;28;20645;-60
2021/03/31 07:53:53;;;;;;;56.10;45.47;;;18.00;63.70;;;;;;5030301;28;20211;-61
2021/03/31 07:56:25;;;;;;;57.77;44.93;;;18.10;64.30;;;;;;5021375;28;20247;-60
2021/03/31 07:59:05;;;;;;;58.33;47.20;;;18.30;64.50;;;;;;5031719;28;20217;-59
2021/03/31 08:01:53;;;;;;;65.63;49.03;;;18.50;63.80;;;;;;4986207;28;20648;-60
2021/03/31 08:04:22;;;;;;;65.43;48.67;;;18.60;62.80;;;;;;4971276;28;20823;-61
2021/03/31 08:06:51;;;;;;;63.17;49.83;;;18.80;63.30;;;;;;4967110;28;20291;-61
2021/03/31 08:09:18;;;;;;;61.27;49.77;;;19.00;62.20;;;;;;4987237;28;20225;-60
2021/03/31 08:11:51;;;;;;;63.77;48.60;;;19.10;61.90;;;;;;4985956;28;20208;-60
2021/03/31 08:14:35;;;;;;;61.13;48.07;;;19.30;61.70;;;;;;4980563;28;20208;-61
2021/03/31 08:17:11;;;;;;;66.27;48.73;;;19.60;60.90;;;;;;4984426;28;20223;-59
2021/03/31 08:19:52;;;;;;;60.03;47.27;;;19.90;60.60;;;;;;4987001;28;20804;-62
2021/03/31 08:22:27;;;;;;;62.30;49.60;;;20.20;59.80;;;;;;4980186;28;20618;-59
2021/03/31 08:24:58;;;;;;;57.50;46.83;;;20.50;59.00;;;;;;4962544;28;20233;-60
2021/03/31 08:27:29;;;;;;;61.67;47.87;;;20.70;58.70;;;;;;4982309;28;20220;-60
2021/03/31 08:29:58;;;;;;;56.40;46.80;;;20.90;57.70;;;;;;4990323;28;20278;-58
2021/03/31 08:32:27;;;;;;;55.03;48.10;;;21.00;56.40;;;;;;4987054;28;20210;-59
2021/03/31 08:35:12;;;;;;;51.93;44.70;;;21.10;56.30;;;;;;5003739;28;20262;-60
2021/03/31 08:37:42;;;;;;;62.47;46.67;;;21.30;56.00;;;;;;5026792;28;20489;-58
2021/03/31 08:40:09;;;;;;;56.30;46.73;;;21.40;55.50;;;;;;5012905;28;20558;-60
2021/03/31 08:42:57;;;;;;;58.37;48.67;;;21.60;55.40;;;;;;5028818;28;20211;-59
2021/03/31 08:45:31;;;;;;;60.07;48.57;;;21.70;55.30;;;;;;5029514;28;20238;-60
2021/03/31 08:47:59;;;;;;;55.47;46.33;;;21.70;55.70;;;;;;5011505;28;20221;-60
2021/03/31 08:50:30;;;;;;;56.90;45.87;;;21.60;54.70;;;;;;5032074;28;20318;-59
2021/03/31 08:52:59;;;;;;;56.93;45.33;;;21.50;54.70;;;;;;5022181;28;20218;-61
2021/03/31 08:55:31;;;;;;;58.20;45.20;;;21.50;55.00;;;;;;5031826;28;20198;-60
2021/03/31 08:57:58;;;;;;;55.90;45.13;;;21.50;55.00;;;;;;5028173;28;20218;-65
2021/03/31 09:00:25;;;;;;;52.50;43.60;;;21.60;55.20;;;;;;5026205;28;20214;-62
2021/03/31 09:03:03;;;;;;;51.70;43.37;;;21.70;54.80;;;;;;5029297;28;20644;-60
2021/03/31 09:05:30;;;;;;;48.20;43.00;;;21.60;54.70;;;;;;5014220;28;20513;-61
2021/03/31 09:08:01;;;;;;;58.17;44.47;;;21.70;54.90;;;;;;5020979;28;20207;-61
2021/03/31 09:10:56;;;;;;;54.83;44.50;;;21.90;54.80;;;;;;5019242;28;20221;-61
2021/03/31 09:13:28;;;;;;;52.47;43.70;;;22.20;54.40;;;;;;5021405;28;20670;-60
2021/03/31 09:15:57;;;;;;;55.43;44.40;;;22.30;53.40;;;;;;5025420;28;20714;-62
2021/03/31 09:18:24;;;;;;;52.90;44.60;;;22.30;53.50;;;;;;5017299;28;20356;-61
2021/03/31 09:20:52;;;;;;;55.77;45.80;;;22.50;53.60;;;;;;5021880;28;20211;-59
2021/03/31 09:23:21;;;;;;;53.67;46.53;;;22.70;53.00;;;;;;5025066;28;20211;-62
2021/03/31 09:26:03;;;;;;;56.07;46.67;;;22.80;53.10;;;;;;5026009;28;20302;-60
2021/03/31 09:28:32;;;;;;;55.13;43.30;;;22.90;52.60;;;;;;5009887;28;20752;-61
2021/03/31 09:31:08;;;;;;;57.63;45.07;;;22.90;52.40;;;;;;5025705;28;20207;-62
2021/03/31 09:33:43;;;;;;;53.87;46.03;;;23.00;52.30;;;;;;5016003;28;20203;-61
2021/03/31 09:36:15;;;;;;;55.30;47.60;;;23.10;52.00;;;;;;5028055;28;20212;-62
2021/03/31 09:38:46;;;;;;;52.67;46.77;;;23.10;52.40;;;;;;5007304;28;20212;-62
2021/03/31 09:41:16;;;;;;;57.33;45.33;;;23.20;51.90;;;;;;5024565;28;20616;-62
2021/03/31 09:43:48;;;;;;;56.00;43.83;;;23.30;51.20;;;;;;5029399;28;20254;-60
2021/03/31 09:46:22;;;;;;;54.13;44.03;;;23.40;50.60;;;;;;5033388;28;20203;-60
2021/03/31 09:48:50;;;;;;;58.20;45.37;;;23.50;50.70;;;;;;5034090;28;20219;-60
2021/03/31 09:51:18;;;;;;;63.00;46.70;;;23.50;50.10;;;;;;5034903;28;20543;-61
2021/03/31 09:53:47;;;;;;;59.87;47.83;;;23.60;49.20;;;;;;5024557;28;20230;-61
2021/03/31 09:56:14;;;;;;;60.07;45.10;;;23.50;49.40;;;;;;5011597;28;20572;-60
2021/03/31 09:58:44;;;;;;;57.00;43.70;;;23.50;49.40;;;;;;5016530;28;20238;-60
2021/03/31 10:01:12;;;;;;;56.57;42.70;;;23.60;49.50;;;;;;5017203;28;20218;-61
2021/03/31 10:03:44;;;;;;;52.83;42.60;;;23.80;48.60;;;;;;5017465;28;20618;-61
2021/03/31 10:06:25;;;;;;;56.20;44.47;;;23.90;48.50;;;;;;5017127;28;20674;-62
2021/03/31 10:08:53;;;;;;;51.43;42.80;;;24.10;48.20;;;;;;5023256;28;20266;-60
2021/03/31 10:11:36;;;;;;;50.17;42.27;;;24.20;48.10;;;;;;5020779;28;20203;-61
2021/03/31 10:14:17;;;;;;;53.70;41.43;;;24.40;48.40;;;;;;5011915;28;20207;-60
2021/03/31 10:16:44;;;;;;;49.07;41.47;;;24.70;48.40;;;;;;5027912;28;20643;-62
2021/03/31 10:19:11;;;;;;;53.57;39.57;;;24.90;48.10;;;;;;5029625;28;20211;-62
2021/03/31 10:21:39;;;;;;;50.97;37.20;;;25.00;47.30;;;;;;5016505;28;20219;-64
2021/03/31 10:24:07;;;;;;;46.83;37.90;;;25.20;46.60;;;;;;5018754;28;20236;-62
2021/03/31 10:26:54;;;;;;;41.27;30.33;;;25.40;45.80;;;;;;5031703;28;20214;-62
2021/03/31 10:29:28;;;;;;;43.00;31.77;;;25.50;44.30;;;;;;5031344;28;20298;-62
2021/03/31 10:32:19;;;;;;;37.10;29.93;;;25.60;43.60;;;;;;5019344;28;20242;-60
2021/03/31 10:34:55;;;;;;;30.93;25.10;;;25.60;43.00;;;;;;5025275;28;20262;-60
2021/03/31 10:37:33;;;;;;;32.10;27.30;;;25.70;42.00;;;;;;5023098;28;20261;-60
2021/03/31 10:40:28;;;;;;;35.10;27.90;;;25.80;41.30;;;;;;5021432;28;20634;-59
2021/03/31 10:56:22;;;;;;;38.43;27.60;;;25.90;40.10;;;;;;5034148;28;20658;-61
2021/03/31 10:58:49;;;;;;;32.43;25.20;;;26.00;40.50;;;;;;5016437;28;20222;-60
2021/03/31 11:01:17;;;;;;;36.57;26.13;;;26.10;40.40;;;;;;5032561;28;20531;-59
2021/03/31 11:03:43;;;;;;;33.50;24.37;;;26.10;39.50;;;;;;5031577;28;20227;-59
2021/03/31 11:06:10;;;;;;;39.03;26.20;;;26.10;39.70;;;;;;5022448;28;20207;-60
2021/03/31 11:08:37;;;;;;;33.33;24.13;;;26.20;39.90;;;;;;5032919;28;20590;-61
2021/03/31 11:11:06;;;;;;;30.60;25.07;;;26.30;40.20;;;;;;5023065;28;20516;-60
2021/03/31 11:13:33;;;;;;;33.70;25.20;;;26.40;40.00;;;;;;5029666;28;20239;-60
2021/03/31 11:16:02;;;;;;;33.27;23.67;;;26.60;40.00;;;;;;5032687;28;20292;-60
2021/03/31 11:26:58;;;;;;;28.77;23.77;;;26.20;38.90;;;;;;4897090;29;20675;-59
2021/03/31 11:29:25;;;;;;;33.10;23.53;;;26.20;39.30;;;;;;4929367;29;20659;-60
2021/03/31 11:31:53;;;;;;;35.60;18.37;;;26.20;39.60;;;;;;4968218;28;20595;-60
2021/03/31 11:34:19;;;;;;;24.10;16.73;;;26.30;38.50;;;;;;5012945;28;20215;-61
2021/03/31 11:36:49;;;;;;;22.43;16.60;;;26.30;37.20;;;;;;5031784;28;20306;-59
2021/03/31 11:39:18;;;;;;;31.50;21.13;;;26.50;37.30;;;;;;5012035;28;20302;-59
2021/03/31 11:41:46;;;;;;;30.47;21.20;;;26.60;36.50;;;;;;5014627;28;20242;-60
2021/03/31 11:44:13;;;;;;;22.83;18.53;;;26.70;36.90;;;;;;5028841;28;20238;-65
2021/03/31 11:46:40;;;;;;;23.03;18.37;;;26.70;36.90;;;;;;5029545;28;20207;-62
2021/03/31 11:49:07;;;;;;;28.80;18.67;;;26.80;37.00;;;;;;5026931;28;20207;-62
2021/03/31 11:51:34;;;;;;;24.97;20.80;;;26.90;37.10;;;;;;5031970;28;20234;-62
2021/03/31 11:54:01;;;;;;;26.20;19.50;;;26.90;36.80;;;;;;5028468;28;20240;-63
2021/03/31 11:56:28;;;;;;;23.27;17.77;;;26.80;35.70;;;;;;5032615;28;20295;-63
2021/03/31 11:58:56;;;;;;;21.03;17.07;;;26.70;35.30;;;;;;5013961;28;20778;-63
2021/03/31 12:01:24;;;;;;;16.77;14.83;;;26.50;35.70;;;;;;5030347;28;20254;-63
2021/03/31 12:03:51;;;;;;;20.77;16.73;;;26.40;35.40;;;;;;5031782;28;20254;-63
2021/03/31 12:06:18;;;;;;;19.67;16.13;;;26.40;35.20;;;;;;5031016;28;20216;-63
2021/03/31 12:08:46;;;;;;;18.97;14.97;;;26.40;34.90;;;;;;5032577;28;20544;-63
2021/03/31 12:11:14;;;;;;;18.63;16.43;;;26.40;36.20;;;;;;5031407;28;20623;-63
2021/03/31 12:13:41;;;;;;;23.27;17.03;;;26.50;34.70;;;;;;5022527;28;20242;-63
2021/03/31 12:16:08;;;;;;;22.90;17.77;;;26.40;34.00;;;;;;5029439;28;20222;-63
2021/03/31 12:18:35;;;;;;;25.43;17.80;;;26.40;34.60;;;;;;5030500;28;20199;-63
2021/03/31 12:21:04;;;;;;;28.43;17.90;;;26.40;35.30;;;;;;5031196;28;20203;-63
2021/03/31 12:23:33;;;;;;;25.43;18.07;;;26.50;35.80;;;;;;5012687;28;20261;-63
2021/03/31 12:26:00;;;;;;;24.43;17.27;;;26.70;35.80;;;;;;5015649;28;20610;-63
2021/03/31 12:28:28;;;;;;;17.87;13.60;;;26.80;35.80;;;;;;5031582;28;20212;-63
2021/03/31 12:30:55;;;;;;;23.33;15.63;;;26.90;35.00;;;;;;5024330;28;20207;-63
2021/03/31 12:33:22;;;;;;;18.60;15.53;;;27.00;34.90;;;;;;5014526;28;20349;-63
2021/03/31 12:35:49;;;;;;;21.20;16.63;;;27.10;34.40;;;;;;5025486;28;20254;-63
2021/03/31 12:38:20;;;;;;;21.17;16.10;;;27.20;33.50;;;;;;5026865;28;20214;-63
2021/03/31 12:41:17;;;;;;;23.53;17.73;;;27.10;33.20;;;;;;5031823;28;20249;-63
2021/03/31 12:43:44;;;;;;;23.50;18.93;;;27.00;35.00;;;;;;4945793;28;20300;-63
2021/03/31 12:46:11;;;;;;;26.50;19.17;;;26.90;35.20;;;;;;4948944;28;20216;-63
2021/03/31 12:48:38;;;;;;;27.70;19.20;;;26.80;35.40;;;;;;5015244;28;20222;-63
2021/03/31 12:51:12;;;;;;;23.43;19.73;;;26.80;35.50;;;;;;5031966;28;20289;-63
2021/03/31 12:53:58;;;;;;;29.30;21.43;;;26.90;35.00;;;;;;5028348;28;20217;-62
2021/03/31 12:56:26;;;;;;;22.03;15.13;;;26.90;35.00;;;;;;5014927;28;20229;-63
2021/03/31 12:58:53;;;;;;;23.93;16.83;;;26.80;34.80;;;;;;5028042;28;20238;-61
2021/03/31 13:01:24;;;;;;;31.47;19.87;;;26.70;35.60;;;;;;5031562;28;20203;-64
2021/03/31 13:03:52;;;;;;;20.57;16.07;;;26.70;35.60;;;;;;5012609;28;20278;-61
2021/03/31 13:06:23;;;;;;;26.87;18.07;;;26.70;36.10;;;;;;5031698;28;20294;-59
2021/03/31 13:08:52;;;;;;;22.07;16.77;;;26.70;35.50;;;;;;5029403;28;20200;-61
2021/03/31 13:11:39;;;;;;;22.67;15.67;;;26.60;34.60;;;;;;5029511;28;20647;-60